sensor_id;sensor_type;location;lat;lon;timestamp;pressure;altitude;pressure_sealevel;temperature;humidity
76054;BME280;64752;48.870;9.082;2023-05-07T00:01:10;97937.28;;;12.18;91.72
76054;BME280;64752;48.870;9.082;2023-05-07T00:03:36;97936.00;;;12.28;91.26
76054;BME280;64752;48.870;9.082;2023-05-07T00:06:01;97935.66;;;12.36;90.88
76054;BME280;64752;48.870;9.082;2023-05-07T00:08:27;97926.06;;;12.18;91.00
76054;BME280;64752;48.870;9.082;2023-05-07T00:10:52;97931.69;;;12.07;92.08
76054;BME280;64752;48.870;9.082;2023-05-07T00:13:17;97934.31;;;12.07;93.06
76054;BME280;64752;48.870;9.082;2023-05-07T00:15:43;97933.97;;;11.94;93.05
76054;BME280;64752;48.870;9.082;2023-05-07T00:18:08;97934.09;;;11.91;93.51
76054;BME280;64752;48.870;9.082;2023-05-07T00:20:33;97931.72;;;11.85;93.62
76054;BME280;64752;48.870;9.082;2023-05-07T00:22:59;97923.81;;;11.88;93.80
76054;BME280;64752;48.870;9.082;2023-05-07T00:25:24;97922.28;;;12.04;93.40
76054;BME280;64752;48.870;9.082;2023-05-07T00:27:49;97918.25;;;11.97;93.76
76054;BME280;64752;48.870;9.082;2023-05-07T00:30:15;97927.00;;;11.94;94.18
76054;BME280;64752;48.870;9.082;2023-05-07T00:32:40;97920.81;;;11.99;94.05
76054;BME280;64752;48.870;9.082;2023-05-07T00:35:06;97914.22;;;11.90;93.60
76054;BME280;64752;48.870;9.082;2023-05-07T00:37:32;97913.53;;;11.85;93.83
76054;BME280;64752;48.870;9.082;2023-05-07T00:39:57;97910.28;;;11.80;94.04
76054;BME280;64752;48.870;9.082;2023-05-07T00:42:22;97910.88;;;11.66;94.24
76054;BME280;64752;48.870;9.082;2023-05-07T00:44:49;97913.59;;;11.63;94.88
76054;BME280;64752;48.870;9.082;2023-05-07T00:47:15;97908.69;;;11.55;95.54
76054;BME280;64752;48.870;9.082;2023-05-07T00:49:43;97912.84;;;11.59;95.75
76054;BME280;64752;48.870;9.082;2023-05-07T00:52:13;97915.91;;;11.69;95.80
76054;BME280;64752;48.870;9.082;2023-05-07T00:54:40;97910.38;;;11.56;95.57
76054;BME280;64752;48.870;9.082;2023-05-07T00:57:06;97909.13;;;11.44;95.56
76054;BME280;64752;48.870;9.082;2023-05-07T00:59:32;97907.63;;;11.38;97.15
76054;BME280;64752;48.870;9.082;2023-05-07T01:01:58;97908.47;;;11.39;97.01
76054;BME280;64752;48.870;9.082;2023-05-07T01:04:24;97904.25;;;11.36;97.32
76054;BME280;64752;48.870;9.082;2023-05-07T01:06:50;97914.44;;;11.41;97.95
76054;BME280;64752;48.870;9.082;2023-05-07T01:09:16;97906.44;;;11.25;97.94
76054;BME280;64752;48.870;9.082;2023-05-07T01:11:43;97906.91;;;11.13;98.08
76054;BME280;64752;48.870;9.082;2023-05-07T01:14:09;97904.19;;;11.16;98.14
76054;BME280;64752;48.870;9.082;2023-05-07T01:16:36;97901.25;;;11.25;97.53
76054;BME280;64752;48.870;9.082;2023-05-07T01:19:01;97902.19;;;11.23;97.98
76054;BME280;64752;48.870;9.082;2023-05-07T01:21:30;97902.91;;;11.26;97.25
76054;BME280;64752;48.870;9.082;2023-05-07T01:23:57;97908.78;;;11.31;96.73
76054;BME280;64752;48.870;9.082;2023-05-07T01:26:23;97903.06;;;11.23;96.60
76054;BME280;64752;48.870;9.082;2023-05-07T01:28:49;97909.63;;;11.32;97.25
76054;BME280;64752;48.870;9.082;2023-05-07T01:31:16;97909.75;;;11.29;97.02
76054;BME280;64752;48.870;9.082;2023-05-07T01:33:42;97906.53;;;11.22;97.11
76054;BME280;64752;48.870;9.082;2023-05-07T01:36:09;97902.34;;;11.19;97.72
76054;BME280;64752;48.870;9.082;2023-05-07T01:38:37;97905.75;;;11.20;96.99
76054;BME280;64752;48.870;9.082;2023-05-07T01:41:04;97902.50;;;11.15;97.51
76054;BME280;64752;48.870;9.082;2023-05-07T01:43:30;97905.50;;;11.04;97.72
76054;BME280;64752;48.870;9.082;2023-05-07T01:45:57;97905.75;;;10.98;98.19
76054;BME280;64752;48.870;9.082;2023-05-07T01:48:24;97902.06;;;11.04;97.91
76054;BME280;64752;48.870;9.082;2023-05-07T01:50:51;97897.97;;;11.20;97.93
76054;BME280;64752;48.870;9.082;2023-05-07T01:53:16;97899.59;;;11.23;98.01
76054;BME280;64752;48.870;9.082;2023-05-07T01:55:42;97898.34;;;11.33;96.60
76054;BME280;64752;48.870;9.082;2023-05-07T01:58:07;97900.81;;;11.36;96.04
76054;BME280;64752;48.870;9.082;2023-05-07T02:00:32;97903.16;;;11.42;96.11
76054;BME280;64752;48.870;9.082;2023-05-07T02:02:58;97908.44;;;11.61;95.31
76054;BME280;64752;48.870;9.082;2023-05-07T02:05:23;97906.81;;;11.58;94.61
76054;BME280;64752;48.870;9.082;2023-05-07T02:07:49;97901.09;;;11.50;94.84
76054;BME280;64752;48.870;9.082;2023-05-07T02:10:14;97904.78;;;11.45;95.13
76054;BME280;64752;48.870;9.082;2023-05-07T02:12:40;97907.56;;;11.40;95.56
76054;BME280;64752;48.870;9.082;2023-05-07T02:15:05;97911.63;;;11.47;95.03
76054;BME280;64752;48.870;9.082;2023-05-07T02:17:31;97903.16;;;11.42;95.17
76054;BME280;64752;48.870;9.082;2023-05-07T02:20:00;97902.38;;;11.40;95.73
76054;BME280;64752;48.870;9.082;2023-05-07T02:22:25;97904.72;;;11.24;95.74
76054;BME280;64752;48.870;9.082;2023-05-07T02:24:51;97904.78;;;11.23;95.86
76054;BME280;64752;48.870;9.082;2023-05-07T02:27:16;97909.75;;;11.07;96.26
76054;BME280;64752;48.870;9.082;2023-05-07T02:29:41;97909.13;;;11.00;96.80
76054;BME280;64752;48.870;9.082;2023-05-07T02:32:07;97909.44;;;10.92;97.12
76054;BME280;64752;48.870;9.082;2023-05-07T02:34:32;97905.75;;;10.98;97.44
76054;BME280;64752;48.870;9.082;2023-05-07T02:36:57;97904.91;;;10.97;97.97
76054;BME280;64752;48.870;9.082;2023-05-07T02:39:23;97901.09;;;11.06;97.03
76054;BME280;64752;48.870;9.082;2023-05-07T02:41:48;97912.41;;;11.05;96.33
76054;BME280;64752;48.870;9.082;2023-05-07T02:44:14;97907.66;;;10.93;97.41
76054;BME280;64752;48.870;9.082;2023-05-07T02:46:39;97910.38;;;10.90;97.42
76054;BME280;64752;48.870;9.082;2023-05-07T02:49:04;97906.91;;;10.67;97.67
76054;BME280;64752;48.870;9.082;2023-05-07T02:51:30;97910.34;;;10.68;98.01
76054;BME280;64752;48.870;9.082;2023-05-07T02:53:56;97901.56;;;10.72;98.62
76054;BME280;64752;48.870;9.082;2023-05-07T02:56:21;97896.72;;;10.63;99.02
76054;BME280;64752;48.870;9.082;2023-05-07T02:58:47;97894.22;;;10.59;99.54
76054;BME280;64752;48.870;9.082;2023-05-07T03:01:13;97894.78;;;10.68;99.86
76054;BME280;64752;48.870;9.082;2023-05-07T03:03:39;97893.34;;;10.60;100.00
76054;BME280;64752;48.870;9.082;2023-05-07T03:06:05;97892.59;;;10.57;99.98
76054;BME280;64752;48.870;9.082;2023-05-07T03:08:31;97896.91;;;10.56;99.78
76054;BME280;64752;48.870;9.082;2023-05-07T03:10:57;97889.19;;;10.55;99.86
76054;BME280;64752;48.870;9.082;2023-05-07T03:13:22;97882.44;;;10.51;99.80
76054;BME280;64752;48.870;9.082;2023-05-07T03:15:48;97889.44;;;10.49;100.00
76054;BME280;64752;48.870;9.082;2023-05-07T03:18:13;97892.66;;;10.30;100.00
76054;BME280;64752;48.870;9.082;2023-05-07T03:20:39;97883.50;;;10.20;100.00
76054;BME280;64752;48.870;9.082;2023-05-07T03:23:07;97886.22;;;10.17;100.00
76054;BME280;64752;48.870;9.082;2023-05-07T03:25:32;97882.25;;;10.07;100.00
76054;BME280;64752;48.870;9.082;2023-05-07T03:27:58;97882.47;;;10.00;100.00
76054;BME280;64752;48.870;9.082;2023-05-07T03:30:24;97882.94;;;10.12;100.00
76054;BME280;64752;48.870;9.082;2023-05-07T03:32:49;97878.84;;;10.31;100.00
76054;BME280;64752;48.870;9.082;2023-05-07T03:35:15;97882.28;;;10.32;100.00
76054;BME280;64752;48.870;9.082;2023-05-07T03:37:40;97886.00;;;10.23;100.00
76054;BME280;64752;48.870;9.082;2023-05-07T03:40:06;97875.53;;;10.26;100.00
76054;BME280;64752;48.870;9.082;2023-05-07T03:42:32;97877.22;;;10.27;100.00
76054;BME280;64752;48.870;9.082;2023-05-07T03:44:58;97878.22;;;10.23;100.00
76054;BME280;64752;48.870;9.082;2023-05-07T03:47:23;97876.00;;;10.12;100.00
76054;BME280;64752;48.870;9.082;2023-05-07T03:49:49;97885.31;;;10.18;100.00
76054;BME280;64752;48.870;9.082;2023-05-07T03:52:15;97888.88;;;10.15;100.00
76054;BME280;64752;48.870;9.082;2023-05-07T03:54:41;97891.22;;;10.21;100.00
76054;BME280;64752;48.870;9.082;2023-05-07T03:57:06;97892.31;;;10.41;100.00
76054;BME280;64752;48.870;9.082;2023-05-07T03:59:31;97891.81;;;10.31;100.00
76054;BME280;64752;48.870;9.082;2023-05-07T04:01:57;97890.06;;;10.30;100.00
76054;BME280;64752;48.870;9.082;2023-05-07T04:04:23;97888.09;;;10.38;100.00
76054;BME280;64752;48.870;9.082;2023-05-07T04:06:48;97891.66;;;10.34;100.00
76054;BME280;64752;48.870;9.082;2023-05-07T04:09:13;97897.66;;;10.36;100.00
76054;BME280;64752;48.870;9.082;2023-05-07T04:11:39;97902.00;;;10.36;100.00
76054;BME280;64752;48.870;9.082;2023-05-07T04:14:05;97898.81;;;10.28;100.00
76054;BME280;64752;48.870;9.082;2023-05-07T04:16:30;97903.75;;;10.35;100.00
76054;BME280;64752;48.870;9.082;2023-05-07T04:18:56;97907.03;;;10.40;100.00
76054;BME280;64752;48.870;9.082;2023-05-07T04:21:21;97905.31;;;10.39;100.00
76054;BME280;64752;48.870;9.082;2023-05-07T04:23:47;97904.09;;;10.50;100.00
76054;BME280;64752;48.870;9.082;2023-05-07T04:26:13;97912.47;;;10.56;100.00
76054;BME280;64752;48.870;9.082;2023-05-07T04:28:39;97918.41;;;10.60;100.00
76054;BME280;64752;48.870;9.082;2023-05-07T04:31:05;97908.59;;;10.68;100.00
76054;BME280;64752;48.870;9.082;2023-05-07T04:33:31;97916.88;;;10.78;99.30
76054;BME280;64752;48.870;9.082;2023-05-07T04:35:57;97915.13;;;10.78;99.43
76054;BME280;64752;48.870;9.082;2023-05-07T04:38:22;97916.47;;;10.89;98.95
76054;BME280;64752;48.870;9.082;2023-05-07T04:40:49;97918.84;;;10.95;98.63
76054;BME280;64752;48.870;9.082;2023-05-07T04:43:14;97919.63;;;10.97;98.04
76054;BME280;64752;48.870;9.082;2023-05-07T04:45:41;97928.75;;;11.07;97.26
76054;BME280;64752;48.870;9.082;2023-05-07T04:48:07;97924.09;;;11.15;97.26
76054;BME280;64752;48.870;9.082;2023-05-07T04:50:32;97925.31;;;11.29;96.88
76054;BME280;64752;48.870;9.082;2023-05-07T04:52:58;97934.97;;;11.47;96.16
76054;BME280;64752;48.870;9.082;2023-05-07T04:55:23;97927.44;;;11.84;94.44
76054;BME280;64752;48.870;9.082;2023-05-07T04:57:49;97925.78;;;12.03;92.42
76054;BME280;64752;48.870;9.082;2023-05-07T05:00:14;97930.88;;;12.06;91.50
76054;BME280;64752;48.870;9.082;2023-05-07T05:02:40;97935.31;;;11.82;92.36
76054;BME280;64752;48.870;9.082;2023-05-07T05:05:06;97935.91;;;11.67;92.83
76054;BME280;64752;48.870;9.082;2023-05-07T05:07:33;97933.41;;;11.65;93.10
76054;BME280;64752;48.870;9.082;2023-05-07T05:09:59;97939.56;;;11.63;93.13
76054;BME280;64752;48.870;9.082;2023-05-07T05:12:25;97937.22;;;11.56;93.69
76054;BME280;64752;48.870;9.082;2023-05-07T05:14:51;97944.50;;;11.69;93.44
76054;BME280;64752;48.870;9.082;2023-05-07T05:17:17;97942.53;;;11.96;92.32
76054;BME280;64752;48.870;9.082;2023-05-07T05:19:42;97947.34;;;12.05;91.98
76054;BME280;64752;48.870;9.082;2023-05-07T05:22:08;97946.00;;;12.17;91.29
76054;BME280;64752;48.870;9.082;2023-05-07T05:24:33;97945.06;;;12.59;89.50
76054;BME280;64752;48.870;9.082;2023-05-07T05:26:59;97951.06;;;12.99;88.02
76054;BME280;64752;48.870;9.082;2023-05-07T05:29:26;97954.34;;;14.30;83.34
76054;BME280;64752;48.870;9.082;2023-05-07T05:31:51;97951.88;;;15.27;78.86
76054;BME280;64752;48.870;9.082;2023-05-07T05:34:17;97947.66;;;16.75;74.50
76054;BME280;64752;48.870;9.082;2023-05-07T05:36:44;97944.75;;;18.18;67.52
76054;BME280;64752;48.870;9.082;2023-05-07T05:39:10;97950.38;;;18.90;64.56
76054;BME280;64752;48.870;9.082;2023-05-07T05:41:35;97947.00;;;20.68;58.36
76054;BME280;64752;48.870;9.082;2023-05-07T05:44:00;97952.94;;;20.48;57.79
76054;BME280;64752;48.870;9.082;2023-05-07T05:46:26;97953.31;;;20.08;59.06
76054;BME280;64752;48.870;9.082;2023-05-07T05:48:51;97948.13;;;19.71;59.44
76054;BME280;64752;48.870;9.082;2023-05-07T05:51:16;97946.38;;;18.97;61.93
76054;BME280;64752;48.870;9.082;2023-05-07T05:53:42;97944.41;;;17.15;66.72
76054;BME280;64752;48.870;9.082;2023-05-07T05:56:07;97950.78;;;19.34;60.89
76054;BME280;64752;48.870;9.082;2023-05-07T05:58:32;97953.31;;;19.22;61.21
76054;BME280;64752;48.870;9.082;2023-05-07T06:00:58;97961.03;;;19.50;59.09
76054;BME280;64752;48.870;9.082;2023-05-07T06:03:23;97959.84;;;19.91;58.59
76054;BME280;64752;48.870;9.082;2023-05-07T06:05:49;97953.81;;;18.65;62.61
76054;BME280;64752;48.870;9.082;2023-05-07T06:08:14;97954.41;;;19.20;61.56
76054;BME280;64752;48.870;9.082;2023-05-07T06:10:40;97944.13;;;19.78;60.03
76054;BME280;64752;48.870;9.082;2023-05-07T06:13:05;97950.22;;;19.78;60.14
76054;BME280;64752;48.870;9.082;2023-05-07T06:15:31;97951.03;;;19.55;60.61
76054;BME280;64752;48.870;9.082;2023-05-07T06:17:56;97954.72;;;20.58;57.39
76054;BME280;64752;48.870;9.082;2023-05-07T06:20:22;97954.16;;;21.23;55.60
76054;BME280;64752;48.870;9.082;2023-05-07T06:22:48;97956.69;;;21.47;56.21
76054;BME280;64752;48.870;9.082;2023-05-07T06:25:14;97954.06;;;21.02;56.53
76054;BME280;64752;48.870;9.082;2023-05-07T06:27:39;97964.84;;;21.10;56.81
76054;BME280;64752;48.870;9.082;2023-05-07T06:30:05;97963.25;;;21.85;55.12
76054;BME280;64752;48.870;9.082;2023-05-07T06:32:31;97960.72;;;23.60;49.66
76054;BME280;64752;48.870;9.082;2023-05-07T06:34:56;97958.88;;;24.48;48.01
76054;BME280;64752;48.870;9.082;2023-05-07T06:37:21;97962.63;;;25.68;43.93
76054;BME280;64752;48.870;9.082;2023-05-07T06:39:47;97961.56;;;25.61;44.22
76054;BME280;64752;48.870;9.082;2023-05-07T06:42:12;97954.28;;;26.43;42.75
76054;BME280;64752;48.870;9.082;2023-05-07T06:44:38;97957.03;;;25.15;43.11
76054;BME280;64752;48.870;9.082;2023-05-07T06:47:03;97951.06;;;26.83;40.89
76054;BME280;64752;48.870;9.082;2023-05-07T06:49:30;97956.56;;;27.16;40.18
76054;BME280;64752;48.870;9.082;2023-05-07T06:51:56;97950.66;;;26.18;40.77
76054;BME280;64752;48.870;9.082;2023-05-07T06:54:22;97945.66;;;25.23;42.76
76054;BME280;64752;48.870;9.082;2023-05-07T06:56:47;97940.72;;;26.28;41.46
76054;BME280;64752;48.870;9.082;2023-05-07T06:59:13;97946.16;;;26.62;40.81
76054;BME280;64752;48.870;9.082;2023-05-07T07:01:38;97951.44;;;26.36;40.29
76054;BME280;64752;48.870;9.082;2023-05-07T07:04:03;97945.09;;;25.93;41.85
76054;BME280;64752;48.870;9.082;2023-05-07T07:06:29;97940.22;;;25.88;41.45
76054;BME280;64752;48.870;9.082;2023-05-07T07:08:57;97951.69;;;27.38;38.26
76054;BME280;64752;48.870;9.082;2023-05-07T07:11:22;97946.75;;;27.67;37.80
76054;BME280;64752;48.870;9.082;2023-05-07T07:13:47;97944.22;;;27.49;38.66
76054;BME280;64752;48.870;9.082;2023-05-07T07:16:13;97939.13;;;28.38;36.60
76054;BME280;64752;48.870;9.082;2023-05-07T07:18:38;97940.75;;;27.15;39.10
76054;BME280;64752;48.870;9.082;2023-05-07T07:21:03;97934.16;;;27.27;38.85
76054;BME280;64752;48.870;9.082;2023-05-07T07:23:29;97927.56;;;27.05;39.48
76054;BME280;64752;48.870;9.082;2023-05-07T07:25:54;97930.63;;;27.94;37.92
76054;BME280;64752;48.870;9.082;2023-05-07T07:28:21;97934.78;;;27.80;38.34
76054;BME280;64752;48.870;9.082;2023-05-07T07:30:46;97948.47;;;28.42;37.83
76054;BME280;64752;48.870;9.082;2023-05-07T07:33:12;97935.19;;;29.38;36.24
76054;BME280;64752;48.870;9.082;2023-05-07T07:35:37;97945.63;;;28.03;37.61
76054;BME280;64752;48.870;9.082;2023-05-07T07:38:03;97950.47;;;28.24;37.60
76054;BME280;64752;48.870;9.082;2023-05-07T07:40:28;97945.16;;;30.89;32.04
76054;BME280;64752;48.870;9.082;2023-05-07T07:42:54;97942.09;;;29.55;34.75
76054;BME280;64752;48.870;9.082;2023-05-07T07:45:19;97937.78;;;27.85;37.81
76054;BME280;64752;48.870;9.082;2023-05-07T07:47:45;97951.22;;;27.59;38.91
76054;BME280;64752;48.870;9.082;2023-05-07T07:50:11;97948.69;;;26.72;40.14
76054;BME280;64752;48.870;9.082;2023-05-07T07:52:36;97947.84;;;26.01;41.46
76054;BME280;64752;48.870;9.082;2023-05-07T07:55:02;97951.41;;;25.28;42.60
76054;BME280;64752;48.870;9.082;2023-05-07T07:57:27;97946.06;;;25.00;43.25
76054;BME280;64752;48.870;9.082;2023-05-07T07:59:53;97952.28;;;24.81;44.50
76054;BME280;64752;48.870;9.082;2023-05-07T08:02:18;97950.91;;;23.31;48.01
76054;BME280;64752;48.870;9.082;2023-05-07T08:04:43;97950.97;;;24.58;46.17
76054;BME280;64752;48.870;9.082;2023-05-07T08:07:10;97951.94;;;23.40;48.11
76054;BME280;64752;48.870;9.082;2023-05-07T08:09:37;97952.97;;;23.88;47.37
76054;BME280;64752;48.870;9.082;2023-05-07T08:12:03;97952.13;;;23.87;47.63
76054;BME280;64752;48.870;9.082;2023-05-07T08:14:29;97948.22;;;23.21;49.52
76054;BME280;64752;48.870;9.082;2023-05-07T08:16:55;97949.44;;;23.67;48.02
76054;BME280;64752;48.870;9.082;2023-05-07T08:19:20;97952.50;;;23.73;48.12
76054;BME280;64752;48.870;9.082;2023-05-07T08:21:47;97952.38;;;24.52;47.22
76054;BME280;64752;48.870;9.082;2023-05-07T08:24:16;97958.94;;;24.29;47.87
76054;BME280;64752;48.870;9.082;2023-05-07T08:26:41;97948.19;;;24.59;46.60
76054;BME280;64752;48.870;9.082;2023-05-07T08:29:07;97952.44;;;25.08;45.54
76054;BME280;64752;48.870;9.082;2023-05-07T08:31:33;97954.53;;;25.42;45.15
76054;BME280;64752;48.870;9.082;2023-05-07T08:33:59;97954.56;;;26.13;43.65
76054;BME280;64752;48.870;9.082;2023-05-07T08:36:25;97958.19;;;27.43;40.77
76054;BME280;64752;48.870;9.082;2023-05-07T08:38:53;97955.63;;;28.34;39.30
76054;BME280;64752;48.870;9.082;2023-05-07T08:41:20;97948.53;;;29.69;36.63
76054;BME280;64752;48.870;9.082;2023-05-07T08:43:50;97956.81;;;28.06;39.00
76054;BME280;64752;48.870;9.082;2023-05-07T08:46:20;97958.59;;;29.90;35.99
76054;BME280;64752;48.870;9.082;2023-05-07T08:48:50;97951.88;;;30.41;34.07
76054;BME280;64752;48.870;9.082;2023-05-07T08:51:17;97955.44;;;31.01;33.92
76054;BME280;64752;48.870;9.082;2023-05-07T08:53:43;97952.66;;;31.75;33.12
76054;BME280;64752;48.870;9.082;2023-05-07T08:56:09;97953.19;;;31.34;33.05
76054;BME280;64752;48.870;9.082;2023-05-07T08:58:35;97947.56;;;32.80;31.27
76054;BME280;64752;48.870;9.082;2023-05-07T09:01:08;97956.06;;;32.55;31.23
76054;BME280;64752;48.870;9.082;2023-05-07T09:03:36;97951.47;;;31.63;32.32
76054;BME280;64752;48.870;9.082;2023-05-07T09:06:01;97950.34;;;31.21;33.93
76054;BME280;64752;48.870;9.082;2023-05-07T09:08:27;97955.34;;;31.97;31.50
76054;BME280;64752;48.870;9.082;2023-05-07T09:10:53;97944.63;;;33.10;30.21
76054;BME280;64752;48.870;9.082;2023-05-07T09:13:19;97950.19;;;32.67;31.30
76054;BME280;64752;48.870;9.082;2023-05-07T09:15:45;97943.88;;;33.77;29.95
76054;BME280;64752;48.870;9.082;2023-05-07T09:18:10;97942.41;;;33.82;29.33
76054;BME280;64752;48.870;9.082;2023-05-07T09:20:36;97929.53;;;34.90;28.28
76054;BME280;64752;48.870;9.082;2023-05-07T09:23:02;97930.16;;;34.99;28.31
76054;BME280;64752;48.870;9.082;2023-05-07T09:25:29;97928.75;;;33.83;29.80
76054;BME280;64752;48.870;9.082;2023-05-07T09:27:55;97927.25;;;33.60;29.13
76054;BME280;64752;48.870;9.082;2023-05-07T09:30:20;97918.66;;;34.32;28.04
76054;BME280;64752;48.870;9.082;2023-05-07T09:32:46;97919.06;;;34.42;28.08
76054;BME280;64752;48.870;9.082;2023-05-07T09:35:15;97921.19;;;35.19;27.52
76054;BME280;64752;48.870;9.082;2023-05-07T09:37:42;97922.44;;;35.93;26.16
76054;BME280;64752;48.870;9.082;2023-05-07T09:40:08;97925.00;;;36.38;25.05
76054;BME280;64752;48.870;9.082;2023-05-07T09:42:34;97922.59;;;35.98;26.08
76054;BME280;64752;48.870;9.082;2023-05-07T09:44:59;97917.50;;;36.40;25.54
76054;BME280;64752;48.870;9.082;2023-05-07T09:47:32;97911.13;;;35.78;26.92
76054;BME280;64752;48.870;9.082;2023-05-07T09:49:59;97912.75;;;36.36;26.21
76054;BME280;64752;48.870;9.082;2023-05-07T09:52:25;97910.56;;;35.30;27.46
76054;BME280;64752;48.870;9.082;2023-05-07T09:54:54;97914.00;;;33.59;28.50
76054;BME280;64752;48.870;9.082;2023-05-07T09:57:25;97911.19;;;34.27;28.57
76054;BME280;64752;48.870;9.082;2023-05-07T09:59:52;97920.88;;;35.79;26.78
76054;BME280;64752;48.870;9.082;2023-05-07T10:02:19;97914.56;;;37.04;24.45
76054;BME280;64752;48.870;9.082;2023-05-07T10:04:46;97902.13;;;38.06;24.13
76054;BME280;64752;48.870;9.082;2023-05-07T10:07:13;97901.06;;;36.17;25.50
76054;BME280;64752;48.870;9.082;2023-05-07T10:09:39;97897.25;;;34.77;26.92
76054;BME280;64752;48.870;9.082;2023-05-07T10:12:07;97900.44;;;36.21;25.90
76054;BME280;64752;48.870;9.082;2023-05-07T10:14:33;97892.88;;;36.48;25.14
76054;BME280;64752;48.870;9.082;2023-05-07T10:16:59;97889.72;;;36.95;25.49
76054;BME280;64752;48.870;9.082;2023-05-07T10:19:50;97891.91;;;36.43;25.86
76054;BME280;64752;48.870;9.082;2023-05-07T10:22:17;97885.72;;;35.08;27.58
76054;BME280;64752;48.870;9.082;2023-05-07T10:24:44;97884.25;;;34.07;28.19
76054;BME280;64752;48.870;9.082;2023-05-07T10:27:11;97878.84;;;29.94;34.23
76054;BME280;64752;48.870;9.082;2023-05-07T10:32:39;97877.88;;;30.63;32.76
76054;BME280;64752;48.870;9.082;2023-05-07T10:35:08;97878.72;;;30.25;34.43
76054;BME280;64752;48.870;9.082;2023-05-07T10:37:35;97877.25;;;30.23;34.44
76054;BME280;64752;48.870;9.082;2023-05-07T10:40:01;97872.13;;;30.36;34.55
76054;BME280;64752;48.870;9.082;2023-05-07T10:42:28;97875.41;;;30.23;34.99
76054;BME280;64752;48.870;9.082;2023-05-07T10:44:53;97880.63;;;30.40;34.00
76054;BME280;64752;48.870;9.082;2023-05-07T10:47:18;97878.63;;;29.57;35.56
76054;BME280;64752;48.870;9.082;2023-05-07T10:52:20;97873.94;;;28.97;37.42
76054;BME280;64752;48.870;9.082;2023-05-07T10:54:47;97874.47;;;27.79;39.31
76054;BME280;64752;48.870;9.082;2023-05-07T10:59:56;97881.69;;;27.19;40.79
76054;BME280;64752;48.870;9.082;2023-05-07T11:05:23;97875.91;;;26.81;41.38
76054;BME280;64752;48.870;9.082;2023-05-07T11:07:56;97873.97;;;27.00;40.71
76054;BME280;64752;48.870;9.082;2023-05-07T11:10:56;97883.19;;;27.22;40.82
76054;BME280;64752;48.870;9.082;2023-05-07T11:13:43;97881.53;;;27.21;40.74
76054;BME280;64752;48.870;9.082;2023-05-07T11:16:36;97874.81;;;27.76;39.85
76054;BME280;64752;48.870;9.082;2023-05-07T11:19:03;97882.94;;;27.49;39.32
76054;BME280;64752;48.870;9.082;2023-05-07T11:21:37;97881.56;;;27.29;40.17
76054;BME280;64752;48.870;9.082;2023-05-07T11:24:04;97878.91;;;27.29;39.81
76054;BME280;64752;48.870;9.082;2023-05-07T11:26:41;97877.78;;;27.56;39.98
76054;BME280;64752;48.870;9.082;2023-05-07T11:29:11;97869.00;;;27.88;38.67
76054;BME280;64752;48.870;9.082;2023-05-07T11:31:37;97864.97;;;27.60;39.72
76054;BME280;64752;48.870;9.082;2023-05-07T11:34:02;97866.13;;;27.49;40.47
76054;BME280;64752;48.870;9.082;2023-05-07T11:36:31;97869.72;;;27.15;41.24
76054;BME280;64752;48.870;9.082;2023-05-07T11:38:57;97867.44;;;26.86;42.28
76054;BME280;64752;48.870;9.082;2023-05-07T11:41:33;97858.88;;;26.66;42.26
76054;BME280;64752;48.870;9.082;2023-05-07T11:43:59;97864.97;;;26.58;42.08
76054;BME280;64752;48.870;9.082;2023-05-07T11:46:25;97866.91;;;26.48;41.81
76054;BME280;64752;48.870;9.082;2023-05-07T11:48:51;97852.09;;;26.45;42.56
76054;BME280;64752;48.870;9.082;2023-05-07T11:51:24;97860.75;;;26.47;42.61
76054;BME280;64752;48.870;9.082;2023-05-07T11:53:51;97856.03;;;26.07;43.58
76054;BME280;64752;48.870;9.082;2023-05-07T11:56:17;97858.16;;;25.85;44.13
76054;BME280;64752;48.870;9.082;2023-05-07T11:58:43;97865.47;;;25.47;45.21
76054;BME280;64752;48.870;9.082;2023-05-07T12:01:10;97880.22;;;26.22;43.54
76054;BME280;64752;48.870;9.082;2023-05-07T12:03:39;97878.53;;;25.58;45.36
76054;BME280;64752;48.870;9.082;2023-05-07T12:06:08;97880.75;;;26.25;42.42
76054;BME280;64752;48.870;9.082;2023-05-07T12:08:41;97881.16;;;26.39;41.96
76054;BME280;64752;48.870;9.082;2023-05-07T12:11:08;97878.78;;;26.35;42.48
76054;BME280;64752;48.870;9.082;2023-05-07T12:13:35;97883.06;;;26.02;43.71
76054;BME280;64752;48.870;9.082;2023-05-07T12:16:00;97870.69;;;25.93;44.56
76054;BME280;64752;48.870;9.082;2023-05-07T12:18:28;97866.50;;;25.18;45.73
76054;BME280;64752;48.870;9.082;2023-05-07T12:20:54;97865.22;;;25.76;43.86
76054;BME280;64752;48.870;9.082;2023-05-07T12:23:19;97866.13;;;26.03;43.36
76054;BME280;64752;48.870;9.082;2023-05-07T12:25:45;97863.19;;;25.88;42.95
76054;BME280;64752;48.870;9.082;2023-05-07T12:28:14;97870.16;;;25.71;43.44
76054;BME280;64752;48.870;9.082;2023-05-07T12:30:42;97878.22;;;25.98;42.99
76054;BME280;64752;48.870;9.082;2023-05-07T12:33:07;97883.75;;;25.68;44.20
76054;BME280;64752;48.870;9.082;2023-05-07T12:35:40;97876.09;;;24.17;49.78
76054;BME280;64752;48.870;9.082;2023-05-07T12:38:10;97881.47;;;22.98;54.29
76054;BME280;64752;48.870;9.082;2023-05-07T12:43:02;97877.97;;;22.26;54.43
76054;BME280;64752;48.870;9.082;2023-05-07T12:45:27;97885.66;;;22.18;54.85
76054;BME280;64752;48.870;9.082;2023-05-07T12:47:53;97883.69;;;22.10;54.43
76054;BME280;64752;48.870;9.082;2023-05-07T12:50:18;97893.19;;;22.02;55.49
76054;BME280;64752;48.870;9.082;2023-05-07T12:52:45;97897.56;;;21.70;56.70
76054;BME280;64752;48.870;9.082;2023-05-07T12:55:14;97903.81;;;21.90;57.09
76054;BME280;64752;48.870;9.082;2023-05-07T12:57:43;97909.41;;;21.76;58.79
76054;BME280;64752;48.870;9.082;2023-05-07T13:00:09;97912.25;;;21.08;62.13
76054;BME280;64752;48.870;9.082;2023-05-07T13:02:38;97911.63;;;21.16;63.15
76054;BME280;64752;48.870;9.082;2023-05-07T13:05:04;97903.13;;;21.01;64.01
76054;BME280;64752;48.870;9.082;2023-05-07T13:07:31;97905.53;;;20.82;64.38
76054;BME280;64752;48.870;9.082;2023-05-07T13:09:56;97906.47;;;20.58;61.96